Defiance — WDG2047 — position and weather

sailwx.info

Track history (hours):
 
Tides and Currents Weather Stations Pressure Air Temp Water Temp Dewpoint Dewpoint Depression Visibility Wind Speed Wind Dir Waves Ship Positions

Defiance

Owner: Grand River Navigation Company, Traverse City, MI. More information available from US FCC via Universal Licensing System and Coast Guard Vessel Documentation Center.

Last reported at 2018-Jul-23 01:00 UTC. Time now 2018-Jul-23 07:35 UTC.
Position N 43°42' W 082°30'.

Length 46 m; draft 7 m.

Type: Cargo ship. MMSI: 367511590.

Wind from 100 at 12 knots

Barometer 1010.1 mb
Air temperature 18.8 ° C

Date/timePositionNaut miles runAvg speedWind from/ knotsBaromVisibWave heightAir tempDewpointWater temp
2018-Jul-23 01:00N 43°42' W 082°30'6 6.0 100 / 121010.1 18.8
2018-Jul-23 00:00N 43°36' W 082°30'1212.0 060 / 91009.8 18.8
2018-Jul-22 23:00N 43°24' W 082°30'1312.8 310 / 141009.8 17.7
2018-Jul-22 22:00N 43°12' W 082°24'80 7.3 300 / 121009.8 17.7
2018-Jul-22 11:00N 41°54' W 082°48'2311.6 070 / 161008.1 21.1
2018-Jul-22 09:00N 41°48' W 082°18'9 8.9 080 / 121007.7 21.1
2018-Jul-22 08:00N 41°48' W 082°06'3635.8 090 / 131007.7 22.2
2018-Jul-22 07:00N 41°48' W 082°54'76 4.5 100 / 101009.127.0 21.6
2018-Jul-21 14:00N 41°54' W 081°12'97 5.1 160 / 161010.827.0 21.6
2018-Jul-20 19:00N 43°18' W 082°18'3030.3 180 / 281010.810.8 25.5
2018-Jul-20 18:00N 43°48' W 082°24'62 8.9 130 / 101012.510.8 25.5
2018-Jul-20 11:00N 44°48' W 082°48'1312.7 140 / 121013.2 18.8
2018-Jul-20 10:00N 45°00' W 082°54'1312.7 140 / 81013.5 18.8
2018-Jul-20 09:00N 45°12' W 083°00'1010.4 140 / 81013.5 17.2
2018-Jul-20 08:00N 45°18' W 083°12'8 9.5 180 / 131013.5 19.9
2018-Jul-20 07:07N 45°21' W 083°23'110.5
2018-Jul-20 07:00N 45°22' W 083°24'510.3
2018-Jul-20 06:30N 45°24' W 083°31'510.5
2018-Jul-20 06:00N 45°25' W 083°38'5 9.8
2018-Jul-20 05:30N 45°25' W 083°45'1 2.7
2018-Jul-20 05:00N 45°25' W 083°47'0 0.1
2018-Jul-20 04:30N 45°25' W 083°47'0 0.0
2018-Jul-20 04:00N 45°25' W 083°47'0 0.0
2018-Jul-20 03:27N 45°25' W 083°47'0 0.0
2018-Jul-20 03:00N 45°25' W 083°47'0 0.0
2018-Jul-20 02:30N 45°25' W 083°47'0 0.0
2018-Jul-20 02:00N 45°25' W 083°47'0 0.1
2018-Jul-20 01:30N 45°25' W 083°47'0 0.0
2018-Jul-20 01:00N 45°25' W 083°47'0 0.0
2018-Jul-20 00:30N 45°25' W 083°47'0 0.0
2018-Jul-20 00:00N 45°25' W 083°47'0 0.1
2018-Jul-19 23:30N 45°25' W 083°47'0 0.0
2018-Jul-19 23:00N 45°25' W 083°47'0 0.1
2018-Jul-19 22:30N 45°25' W 083°47'0 0.0
2018-Jul-19 22:00N 45°25' W 083°47'0 0.0
2018-Jul-19 21:30N 45°25' W 083°47'0 0.0
2018-Jul-19 21:00N 45°25' W 083°47'0 0.0
2018-Jul-19 20:30N 45°25' W 083°47'0 0.0
2018-Jul-19 20:00N 45°25' W 083°47'0 0.0
2018-Jul-19 19:30N 45°25' W 083°47'0 0.0
2018-Jul-19 19:00N 45°25' W 083°47'0 0.0
2018-Jul-19 18:30N 45°25' W 083°47'0 0.0
2018-Jul-19 18:00N 45°25' W 083°47'0 0.0
2018-Jul-19 17:29N 45°25' W 083°47'0 0.0
2018-Jul-19 17:00N 45°25' W 083°47'0 0.0
2018-Jul-19 16:30N 45°25' W 083°47'0 0.0
2018-Jul-19 16:00N 45°25' W 083°47'0 0.0
2018-Jul-19 15:30N 45°25' W 083°47'0 0.1
2018-Jul-19 15:00N 45°25' W 083°47'2 1.6
2018-Jul-19 14:00N 45°26' W 083°45'0 0.9
2018-Jul-19 13:30N 45°25' W 083°46'0 0.1
2018-Jul-19 13:00N 45°25' W 083°46'2 4.1
2018-Jul-19 12:30N 45°26' W 083°43'510.8
2018-Jul-19 12:00N 45°25' W 083°35'8 8.0
2018-Jul-19 11:00N 45°24' W 083°24'2713.6 200 / 121018.2 19.9
2018-Jul-19 09:00N 45°00' W 083°06'   180 / 131018.2 18.3
2018-Jul-16 15:30N 45°23' W 083°27'510.6
2018-Jul-16 15:00N 45°24' W 083°34'510.7
2018-Jul-16 14:30N 45°26' W 083°42'4 7.7
2018-Jul-16 14:00N 45°25' W 083°47'0 0.4
2018-Jul-16 13:29N 45°25' W 083°47'0 0.0
2018-Jul-16 12:53N 45°25' W 083°47'0 0.0
2018-Jul-16 12:29N 45°25' W 083°47'0 0.0
2018-Jul-16 11:59N 45°25' W 083°47'0 0.0
2018-Jul-16 11:29N 45°25' W 083°47'0 0.0
2018-Jul-16 10:59N 45°25' W 083°47'0 0.0
2018-Jul-16 10:29N 45°25' W 083°47'0 0.0
2018-Jul-16 09:59N 45°25' W 083°47'0 0.0
2018-Jul-16 09:29N 45°25' W 083°47'0 0.0
2018-Jul-16 08:59N 45°25' W 083°47'0 0.0
2018-Jul-16 08:29N 45°25' W 083°47'0 0.0
2018-Jul-16 07:59N 45°25' W 083°47'0 0.0
2018-Jul-16 07:29N 45°25' W 083°47'0 0.0
2018-Jul-16 06:59N 45°25' W 083°47'0 0.0
2018-Jul-16 06:29N 45°25' W 083°47'0 0.1
2018-Jul-16 05:59N 45°25' W 083°47'0 0.0
2018-Jul-16 05:29N 45°25' W 083°47'0 0.0
2018-Jul-16 04:59N 45°25' W 083°47'0 0.1
2018-Jul-16 04:29N 45°25' W 083°47'0 0.0
2018-Jul-16 03:59N 45°25' W 083°47'0 0.0
2018-Jul-16 03:29N 45°25' W 083°47'0 0.0
2018-Jul-16 02:59N 45°25' W 083°47'0 0.0
2018-Jul-16 02:29N 45°25' W 083°47'0 0.0
2018-Jul-16 01:59N 45°25' W 083°47'0 0.0
2018-Jul-16 01:29N 45°25' W 083°47'0 0.0
2018-Jul-16 00:59N 45°25' W 083°47'0 0.0
2018-Jul-16 00:29N 45°25' W 083°47'0 0.0
2018-Jul-15 23:59N 45°25' W 083°47'0 0.0
2018-Jul-15 23:29N 45°25' W 083°47'0 0.0
2018-Jul-15 22:59N 45°25' W 083°47'0 0.1
2018-Jul-15 22:29N 45°25' W 083°47'0 0.0
2018-Jul-15 21:59N 45°25' W 083°47'0 0.0
2018-Jul-15 21:28N 45°25' W 083°47'0 0.1
2018-Jul-15 20:59N 45°25' W 083°47'0 0.0
2018-Jul-15 20:29N 45°25' W 083°47'0 0.0
2018-Jul-15 19:59N 45°25' W 083°47'0 0.0
2018-Jul-15 19:30N 45°25' W 083°47'1 2.3
2018-Jul-15 19:00N 45°25' W 083°46'3 6.4
2018-Jul-15 18:29N 45°26' W 083°41'611.8
2018-Jul-15 18:00N 45°26' W 083°33'611.5
2018-Jul-15 17:30N 45°24' W 083°25'  
2018-Jul-13 11:00N 45°00' W 082°54'2019.9 190 / 131018.9 5.4 19.4
2018-Jul-13 10:00N 45°18' W 083°06'   190 / 201018.9 2.2 18.3
Track history (hours):
 
Tides and Currents Weather Stations Pressure Air Temp Water Temp Dewpoint Dewpoint Depression Visibility Wind Speed Wind Dir Waves Ship Positions

Defiance

Owner: Grand River Navigation Company, Traverse City, MI. More information available from US FCC via Universal Licensing System and Coast Guard Vessel Documentation Center.

Last reported at 2018-Jul-23 01:00 UTC. Time now 2018-Jul-23 07:35 UTC.
Position N 43°42' W 082°30'.

Length 46 m; draft 7 m.

Type: Cargo ship. MMSI: 367511590.

Wind from 100 at 12 knots

Barometer 1010.1 mb
Air temperature 18.8 ° C

Date/timePositionNaut miles runAvg speedWind from/ knotsBaromVisibWave heightAir tempDewpointWater temp
2018-Jul-23 01:00N 43°42' W 082°30'6 6.0 100 / 121010.1 18.8
2018-Jul-23 00:00N 43°36' W 082°30'1212.0 060 / 91009.8 18.8
2018-Jul-22 23:00N 43°24' W 082°30'1312.8 310 / 141009.8 17.7
2018-Jul-22 22:00N 43°12' W 082°24'80 7.3 300 / 121009.8 17.7
2018-Jul-22 11:00N 41°54' W 082°48'2311.6 070 / 161008.1 21.1
2018-Jul-22 09:00N 41°48' W 082°18'9 8.9 080 / 121007.7 21.1
2018-Jul-22 08:00N 41°48' W 082°06'3635.8 090 / 131007.7 22.2
2018-Jul-22 07:00N 41°48' W 082°54'76 4.5 100 / 101009.127.0 21.6
2018-Jul-21 14:00N 41°54' W 081°12'97 5.1 160 / 161010.827.0 21.6
2018-Jul-20 19:00N 43°18' W 082°18'3030.3 180 / 281010.810.8 25.5
2018-Jul-20 18:00N 43°48' W 082°24'62 8.9 130 / 101012.510.8 25.5
2018-Jul-20 11:00N 44°48' W 082°48'1312.7 140 / 121013.2 18.8
2018-Jul-20 10:00N 45°00' W 082°54'1312.7 140 / 81013.5 18.8
2018-Jul-20 09:00N 45°12' W 083°00'1010.4 140 / 81013.5 17.2
2018-Jul-20 08:00N 45°18' W 083°12'8 9.5 180 / 131013.5 19.9
2018-Jul-20 07:07N 45°21' W 083°23'110.5
2018-Jul-20 07:00N 45°22' W 083°24'510.3
2018-Jul-20 06:30N 45°24' W 083°31'510.5
2018-Jul-20 06:00N 45°25' W 083°38'5 9.8
2018-Jul-20 05:30N 45°25' W 083°45'1 2.7
2018-Jul-20 05:00N 45°25' W 083°47'0 0.1
2018-Jul-20 04:30N 45°25' W 083°47'0 0.0
2018-Jul-20 04:00N 45°25' W 083°47'0 0.0
2018-Jul-20 03:27N 45°25' W 083°47'0 0.0
2018-Jul-20 03:00N 45°25' W 083°47'0 0.0
2018-Jul-20 02:30N 45°25' W 083°47'0 0.0
2018-Jul-20 02:00N 45°25' W 083°47'0 0.1
2018-Jul-20 01:30N 45°25' W 083°47'0 0.0
2018-Jul-20 01:00N 45°25' W 083°47'0 0.0
2018-Jul-20 00:30N 45°25' W 083°47'0 0.0
2018-Jul-20 00:00N 45°25' W 083°47'0 0.1
2018-Jul-19 23:30N 45°25' W 083°47'0 0.0
2018-Jul-19 23:00N 45°25' W 083°47'0 0.1
2018-Jul-19 22:30N 45°25' W 083°47'0 0.0
2018-Jul-19 22:00N 45°25' W 083°47'0 0.0
2018-Jul-19 21:30N 45°25' W 083°47'0 0.0
2018-Jul-19 21:00N 45°25' W 083°47'0 0.0
2018-Jul-19 20:30N 45°25' W 083°47'0 0.0
2018-Jul-19 20:00N 45°25' W 083°47'0 0.0
2018-Jul-19 19:30N 45°25' W 083°47'0 0.0
2018-Jul-19 19:00N 45°25' W 083°47'0 0.0
2018-Jul-19 18:30N 45°25' W 083°47'0 0.0
2018-Jul-19 18:00N 45°25' W 083°47'0 0.0
2018-Jul-19 17:29N 45°25' W 083°47'0 0.0
2018-Jul-19 17:00N 45°25' W 083°47'0 0.0
2018-Jul-19 16:30N 45°25' W 083°47'0 0.0
2018-Jul-19 16:00N 45°25' W 083°47'0 0.0
2018-Jul-19 15:30N 45°25' W 083°47'0 0.1
2018-Jul-19 15:00N 45°25' W 083°47'2 1.6
2018-Jul-19 14:00N 45°26' W 083°45'0 0.9
2018-Jul-19 13:30N 45°25' W 083°46'0 0.1
2018-Jul-19 13:00N 45°25' W 083°46'2 4.1
2018-Jul-19 12:30N 45°26' W 083°43'510.8
2018-Jul-19 12:00N 45°25' W 083°35'8 8.0
2018-Jul-19 11:00N 45°24' W 083°24'2713.6 200 / 121018.2 19.9
2018-Jul-19 09:00N 45°00' W 083°06'   180 / 131018.2 18.3
2018-Jul-16 15:30N 45°23' W 083°27'510.6
2018-Jul-16 15:00N 45°24' W 083°34'510.7
2018-Jul-16 14:30N 45°26' W 083°42'4 7.7
2018-Jul-16 14:00N 45°25' W 083°47'0 0.4
2018-Jul-16 13:29N 45°25' W 083°47'0 0.0
2018-Jul-16 12:53N 45°25' W 083°47'0 0.0
2018-Jul-16 12:29N 45°25' W 083°47'0 0.0
2018-Jul-16 11:59N 45°25' W 083°47'0 0.0
2018-Jul-16 11:29N 45°25' W 083°47'0 0.0
2018-Jul-16 10:59N 45°25' W 083°47'0 0.0
2018-Jul-16 10:29N 45°25' W 083°47'0 0.0
2018-Jul-16 09:59N 45°25' W 083°47'0 0.0
2018-Jul-16 09:29N 45°25' W 083°47'0 0.0
2018-Jul-16 08:59N 45°25' W 083°47'0 0.0
2018-Jul-16 08:29N 45°25' W 083°47'0 0.0
2018-Jul-16 07:59N 45°25' W 083°47'0 0.0
2018-Jul-16 07:29N 45°25' W 083°47'0 0.0
2018-Jul-16 06:59N 45°25' W 083°47'0 0.0
2018-Jul-16 06:29N 45°25' W 083°47'0 0.1
2018-Jul-16 05:59N 45°25' W 083°47'0 0.0
2018-Jul-16 05:29N 45°25' W 083°47'0 0.0
2018-Jul-16 04:59N 45°25' W 083°47'0 0.1
2018-Jul-16 04:29N 45°25' W 083°47'0 0.0
2018-Jul-16 03:59N 45°25' W 083°47'0 0.0
2018-Jul-16 03:29N 45°25' W 083°47'0 0.0
2018-Jul-16 02:59N 45°25' W 083°47'0 0.0
2018-Jul-16 02:29N 45°25' W 083°47'0 0.0
2018-Jul-16 01:59N 45°25' W 083°47'0 0.0
2018-Jul-16 01:29N 45°25' W 083°47'0 0.0
2018-Jul-16 00:59N 45°25' W 083°47'0 0.0
2018-Jul-16 00:29N 45°25' W 083°47'0 0.0
2018-Jul-15 23:59N 45°25' W 083°47'0 0.0
2018-Jul-15 23:29N 45°25' W 083°47'0 0.0
2018-Jul-15 22:59N 45°25' W 083°47'0 0.1
2018-Jul-15 22:29N 45°25' W 083°47'0 0.0
2018-Jul-15 21:59N 45°25' W 083°47'0 0.0
2018-Jul-15 21:28N 45°25' W 083°47'0 0.1
2018-Jul-15 20:59N 45°25' W 083°47'0 0.0
2018-Jul-15 20:29N 45°25' W 083°47'0 0.0
2018-Jul-15 19:59N 45°25' W 083°47'0 0.0
2018-Jul-15 19:30N 45°25' W 083°47'1 2.3
2018-Jul-15 19:00N 45°25' W 083°46'3 6.4
2018-Jul-15 18:29N 45°26' W 083°41'611.8
2018-Jul-15 18:00N 45°26' W 083°33'611.5
2018-Jul-15 17:30N 45°24' W 083°25'  
2018-Jul-13 11:00N 45°00' W 082°54'2019.9 190 / 131018.9 5.4 19.4
2018-Jul-13 10:00N 45°18' W 083°06'   190 / 201018.9 2.2 18.3

Dump ship's entire track history